createdAt,value
2018-11-25T00:00:38.331Z,6.40
2018-11-25T00:01:38.292Z,6.50
2018-11-25T00:02:38.251Z,6.20
2018-11-25T00:03:38.211Z,6.30
2018-11-25T00:04:38.166Z,6.40
2018-11-25T00:05:38.128Z,6.60
2018-11-25T00:06:38.082Z,6.60
2018-11-25T00:07:38.043Z,6.40
2018-11-25T00:08:37.996Z,6.60
2018-11-25T00:09:37.956Z,6.30
2018-11-25T00:10:37.919Z,6.90
2018-11-25T00:11:37.871Z,6.40
2018-11-25T00:12:37.835Z,6.80
2018-11-25T00:13:37.794Z,6.90
2018-11-25T00:14:37.748Z,7.00
2018-11-25T00:15:37.707Z,6.50
2018-11-25T00:16:37.669Z,6.50
2018-11-25T00:17:37.629Z,7.00
2018-11-25T00:18:37.582Z,6.80
2018-11-25T00:19:37.542Z,6.60
2018-11-25T00:20:37.503Z,7.30
2018-11-25T00:21:37.456Z,7.00
2018-11-25T00:22:37.421Z,7.00
2018-11-25T00:23:37.376Z,7.00
2018-11-25T00:24:37.336Z,7.00
2018-11-25T00:25:37.298Z,7.00
2018-11-25T00:26:37.248Z,7.70
2018-11-25T00:27:37.208Z,7.50
2018-11-25T00:28:37.167Z,7.50
2018-11-25T00:29:37.124Z,7.80
2018-11-25T00:30:37.090Z,8.00
2018-11-25T00:31:37.043Z,7.30
2018-11-25T00:32:37.000Z,7.50
2018-11-25T00:33:36.956Z,7.70
2018-11-25T00:34:36.922Z,7.00
2018-11-25T00:35:36.877Z,7.30
2018-11-25T00:36:36.837Z,7.40
2018-11-25T00:37:36.799Z,7.30
2018-11-25T00:38:36.751Z,7.10
2018-11-25T00:39:36.708Z,7.20
2018-11-25T00:40:36.669Z,7.70
2018-11-25T00:41:36.624Z,7.50
2018-11-25T00:42:36.597Z,8.30
2018-11-25T00:43:36.544Z,8.40
2018-11-25T00:44:36.503Z,8.50
2018-11-25T00:45:36.464Z,8.90
2018-11-25T00:46:36.417Z,7.90
2018-11-25T00:47:36.381Z,7.40
2018-11-25T00:48:36.337Z,7.90
2018-11-25T00:49:36.297Z,7.90
2018-11-25T00:50:36.250Z,8.20
2018-11-25T00:51:36.211Z,9.20
2018-11-25T00:52:36.169Z,9.30
2018-11-25T00:53:36.125Z,9.50
2018-11-25T00:54:36.101Z,8.80
2018-11-25T00:55:36.049Z,9.30
2018-11-25T00:56:36.005Z,9.00
2018-11-25T00:57:35.965Z,9.60
2018-11-25T00:58:35.919Z,8.70
2018-11-25T00:59:35.878Z,9.20
2018-11-25T01:00:35.836Z,9.20
2018-11-25T01:01:35.794Z,8.70
2018-11-25T01:02:35.756Z,9.80
2018-11-25T01:03:35.731Z,9.20
2018-11-25T01:04:35.669Z,9.00
2018-11-25T01:05:35.625Z,8.50
2018-11-25T01:06:35.590Z,8.50
2018-11-25T01:07:35.546Z,9.20
2018-11-25T01:08:35.507Z,9.00
2018-11-25T01:09:35.464Z,9.30
2018-11-25T01:10:35.421Z,9.30
2018-11-25T01:11:35.407Z,10.10
2018-11-25T01:12:35.336Z,9.70
2018-11-25T01:13:35.291Z,10.60
2018-11-25T01:14:35.255Z,10.00
2018-11-25T01:15:35.211Z,9.80
2018-11-25T01:16:35.168Z,9.70
2018-11-25T01:17:35.131Z,10.40
2018-11-25T01:18:35.082Z,9.40
2018-11-25T01:19:35.041Z,9.30
2018-11-25T01:20:35.007Z,9.10
2018-11-25T01:21:34.963Z,9.00
2018-11-25T01:22:34.917Z,9.30
2018-11-25T01:23:34.881Z,9.50
2018-11-25T01:24:34.834Z,10.40
2018-11-25T01:25:34.790Z,9.60
2018-11-25T01:26:34.756Z,10.20
2018-11-25T01:27:34.711Z,9.80
2018-11-25T01:28:34.668Z,10.20
2018-11-25T01:29:34.631Z,9.50
2018-11-25T01:30:34.581Z,9.90
2018-11-25T01:31:34.543Z,9.30
2018-11-25T01:32:34.499Z,9.20
2018-11-25T01:33:34.456Z,9.30
2018-11-25T01:34:34.424Z,9.00
2018-11-25T01:35:34.377Z,9.40
2018-11-25T01:36:34.332Z,8.70
2018-11-25T01:37:34.296Z,8.50
2018-11-25T01:38:34.253Z,8.50
2018-11-25T01:39:34.208Z,8.10
2018-11-25T01:40:34.167Z,8.60
2018-11-25T01:41:34.127Z,8.30
2018-11-25T01:42:34.081Z,8.20
2018-11-25T01:43:34.040Z,8.60
2018-11-25T01:44:34.004Z,7.90
2018-11-25T01:45:33.954Z,7.90
2018-11-25T01:46:33.919Z,7.70
2018-11-25T01:47:33.875Z,7.10
2018-11-25T01:48:33.833Z,7.10
2018-11-25T01:49:33.793Z,7.40
2018-11-25T01:50:33.748Z,7.40
2018-11-25T01:51:33.704Z,7.40
2018-11-25T01:52:33.676Z,8.10
2018-11-25T01:53:33.637Z,8.00
2018-11-25T01:54:33.581Z,7.80
2018-11-25T01:55:33.538Z,7.90
2018-11-25T01:56:33.497Z,8.10
2018-11-25T01:57:33.454Z,7.80
2018-11-25T01:58:33.427Z,7.60
2018-11-25T01:59:33.382Z,7.50
2018-11-25T02:00:33.337Z,7.40
2018-11-25T02:01:33.294Z,7.40
2018-11-25T02:02:33.248Z,7.20
2018-11-25T02:03:33.206Z,7.10
2018-11-25T02:04:33.166Z,6.70
2018-11-25T02:05:33.119Z,7.30
2018-11-25T02:06:33.086Z,6.80
2018-11-25T02:07:33.043Z,7.00
2018-11-25T02:08:33.001Z,7.50
2018-11-25T02:09:32.953Z,6.60
2018-11-25T02:10:32.922Z,6.60
2018-11-25T02:11:32.873Z,6.60
2018-11-25T02:12:32.831Z,6.50
2018-11-25T02:13:32.794Z,6.80
2018-11-25T02:14:32.744Z,7.10
2018-11-25T02:15:32.704Z,6.90
2018-11-25T02:16:32.665Z,6.70
2018-11-25T02:17:32.626Z,6.90
2018-11-25T02:18:32.579Z,7.20
2018-11-25T02:19:32.537Z,7.10
2018-11-25T02:20:32.496Z,6.60
2018-11-25T02:21:32.453Z,6.80
2018-11-25T02:22:32.418Z,7.40
2018-11-25T02:23:32.372Z,7.30
2018-11-25T02:24:32.329Z,6.90
2018-11-25T02:25:32.289Z,6.90
2018-11-25T02:26:32.253Z,6.70
2018-11-25T02:27:32.206Z,6.60
2018-11-25T02:28:32.165Z,6.80
2018-11-25T02:29:32.125Z,6.70
2018-11-25T02:30:32.082Z,6.80
2018-11-25T02:31:32.037Z,7.70
2018-11-25T02:32:31.996Z,7.10
2018-11-25T02:33:31.952Z,6.90
2018-11-25T02:34:31.919Z,7.30
2018-11-25T02:35:31.875Z,6.70
2018-11-25T02:36:31.833Z,7.00
2018-11-25T02:37:31.797Z,7.00
2018-11-25T02:38:31.745Z,7.10
2018-11-25T02:39:31.704Z,7.00
2018-11-25T02:40:31.664Z,6.30
2018-11-25T02:41:31.625Z,6.80
2018-11-25T02:42:31.578Z,6.40
2018-11-25T02:43:31.538Z,7.10
2018-11-25T02:44:31.500Z,7.00
2018-11-25T02:45:31.456Z,6.30
2018-11-25T02:46:31.417Z,6.60
2018-11-25T02:47:31.372Z,6.50
2018-11-25T02:48:31.333Z,6.70
2018-11-25T02:49:31.292Z,6.30
2018-11-25T02:50:31.247Z,6.50
2018-11-25T02:51:31.205Z,6.80
2018-11-25T02:52:31.163Z,6.30
2018-11-25T02:53:31.121Z,7.20
2018-11-25T02:54:31.084Z,6.60
2018-11-25T02:55:31.040Z,6.30
2018-11-25T02:56:30.998Z,6.60
2018-11-25T02:57:30.953Z,6.90
2018-11-25T02:58:30.918Z,7.20
2018-11-25T02:59:30.875Z,6.50
2018-11-25T03:00:30.834Z,6.50
2018-11-25T03:01:30.793Z,6.60
2018-11-25T03:02:30.745Z,6.80
2018-11-25T03:03:30.706Z,7.00
2018-11-25T03:04:30.667Z,6.70
2018-11-25T03:05:30.621Z,6.80
2018-11-25T03:06:30.598Z,6.70
2018-11-25T03:07:30.544Z,7.10
2018-11-25T03:08:30.510Z,6.50
2018-11-25T03:09:30.462Z,7.00
2018-11-25T03:10:30.461Z,7.00
2018-11-25T03:11:30.375Z,6.70
2018-11-25T03:12:30.335Z,7.10
2018-11-25T03:13:30.301Z,6.70
2018-11-25T03:14:30.250Z,7.20
2018-11-25T03:15:30.210Z,6.70
2018-11-25T03:16:30.168Z,7.60
2018-11-25T03:17:30.126Z,7.90
2018-11-25T03:18:30.091Z,8.30
2018-11-25T03:19:30.046Z,8.20
2018-11-25T03:20:30.006Z,8.00
2018-11-25T03:21:29.964Z,8.20
2018-11-25T03:22:29.930Z,8.20
2018-11-25T03:23:29.880Z,8.10
2018-11-25T03:24:29.838Z,8.00
2018-11-25T03:25:29.793Z,7.70
2018-11-25T03:26:29.758Z,7.80
2018-11-25T03:27:29.717Z,6.90
2018-11-25T03:28:29.668Z,6.70
2018-11-25T03:29:29.627Z,7.40
2018-11-25T03:30:29.590Z,7.40
2018-11-25T03:31:29.547Z,7.80
2018-11-25T03:32:29.505Z,7.80
2018-11-25T03:33:29.468Z,8.60
2018-11-25T03:34:29.420Z,7.70
2018-11-25T03:35:29.378Z,7.10
2018-11-25T03:36:29.338Z,7.90
2018-11-25T03:37:29.295Z,7.70
2018-11-25T03:38:29.260Z,7.60
2018-11-25T03:39:29.215Z,7.70
2018-11-25T03:40:29.174Z,7.40
2018-11-25T03:41:29.138Z,7.70
2018-11-25T03:42:29.091Z,7.40
2018-11-25T03:43:29.046Z,7.70
2018-11-25T03:44:29.008Z,7.50
2018-11-25T03:45:28.967Z,7.90
2018-11-25T03:46:28.921Z,7.80
2018-11-25T03:47:28.881Z,7.40
2018-11-25T03:48:28.840Z,7.40
2018-11-25T03:49:28.798Z,7.30
2018-11-25T03:50:28.763Z,7.40
2018-11-25T03:51:28.717Z,7.20
2018-11-25T03:52:28.680Z,7.90
2018-11-25T04:06:37.999Z,7.10
2018-11-25T04:07:37.921Z,8.10
2018-11-25T04:08:37.875Z,9.10
2018-11-25T04:09:37.828Z,8.80
2018-11-25T04:10:37.782Z,8.00
2018-11-25T04:11:37.743Z,8.20
2018-11-25T04:12:37.699Z,8.50
2018-11-25T04:13:37.657Z,8.10
2018-11-25T04:14:46.259Z,8.20
2018-11-25T04:16:42.004Z,8.80
2018-11-25T04:17:41.934Z,8.30
2018-11-25T04:18:41.889Z,8.50
2018-11-25T04:19:41.849Z,8.70
2018-11-25T04:20:41.810Z,8.10
2018-11-25T04:21:41.770Z,8.30
2018-11-25T04:22:41.724Z,7.90
2018-11-25T04:23:41.679Z,7.70
2018-11-25T04:24:41.640Z,7.80
2018-11-25T04:25:41.600Z,8.20
2018-11-25T04:26:41.556Z,8.80
2018-11-25T04:27:41.516Z,8.60
2018-11-25T04:28:41.481Z,9.30
2018-11-25T04:29:41.425Z,8.90
2018-11-25T04:30:41.382Z,9.40
2018-11-25T04:31:41.346Z,9.50
2018-11-25T04:32:41.308Z,10.00
2018-11-25T04:33:41.264Z,9.70
2018-11-25T04:34:41.220Z,9.70
2018-11-25T04:35:41.176Z,10.10
2018-11-25T04:36:41.132Z,9.40
2018-11-25T04:37:41.093Z,9.60
2018-11-25T04:38:41.052Z,9.50
2018-11-25T04:39:41.016Z,8.90
2018-11-25T04:40:40.966Z,9.40
2018-11-25T04:41:40.921Z,9.50
2018-11-25T04:42:40.878Z,9.20
2018-11-25T04:43:40.839Z,8.70
2018-11-25T04:44:40.803Z,9.00
2018-11-25T04:45:40.760Z,9.10
2018-11-25T04:46:40.717Z,8.50
2018-11-25T04:47:40.675Z,8.70
2018-11-25T04:48:40.630Z,8.70
2018-11-25T04:49:40.593Z,8.60
2018-11-25T04:50:40.544Z,9.30
2018-11-25T04:51:40.507Z,9.40
2018-11-25T04:52:41.124Z,9.00
2018-11-25T04:53:40.425Z,9.30
2018-11-25T04:54:40.378Z,8.70
2018-11-25T04:55:40.339Z,7.80
2018-11-25T04:56:40.301Z,8.10
2018-11-25T04:57:40.259Z,7.00
2018-11-25T04:58:40.217Z,7.30
2018-11-25T04:59:40.176Z,8.30
2018-11-25T05:00:40.129Z,7.70
2018-11-25T05:01:40.085Z,7.90
2018-11-25T05:02:40.044Z,7.40
2018-11-25T05:03:40.006Z,7.50
2018-11-25T05:04:39.964Z,7.40
2018-11-25T05:05:39.924Z,7.40
2018-11-25T05:06:39.882Z,7.70
2018-11-25T05:07:39.839Z,7.40
2018-11-25T05:08:39.802Z,7.20
2018-11-25T05:09:39.752Z,7.00
2018-11-25T05:10:39.715Z,7.30
2018-11-25T05:11:39.672Z,6.80
2018-11-25T05:12:39.628Z,7.30
2018-11-25T05:13:39.585Z,7.40
2018-11-25T05:14:39.545Z,7.10
2018-11-25T05:15:39.503Z,7.40
2018-11-25T05:16:39.464Z,7.40
2018-11-25T05:17:39.425Z,7.10
2018-11-25T05:18:39.383Z,7.10
2018-11-25T05:19:39.338Z,7.80
2018-11-25T05:20:39.295Z,7.20
2018-11-25T05:21:39.252Z,7.60
2018-11-25T05:22:39.209Z,7.10
2018-11-25T05:23:39.170Z,7.30
2018-11-25T05:24:39.131Z,6.50
2018-11-25T05:25:39.091Z,6.50
2018-11-25T05:26:39.043Z,6.80
2018-11-25T05:27:39.006Z,6.50
2018-11-25T05:28:38.965Z,7.10
2018-11-25T05:29:38.925Z,6.80
2018-11-25T05:30:38.883Z,6.60
2018-11-25T05:31:38.843Z,6.30
2018-11-25T05:32:38.801Z,6.10
2018-11-25T05:33:38.753Z,6.60
2018-11-25T05:34:38.710Z,6.40
2018-11-25T05:35:38.672Z,6.60
2018-11-25T05:36:38.631Z,6.40
2018-11-25T05:37:38.596Z,6.70
2018-11-25T05:38:38.550Z,6.80
2018-11-25T05:39:38.509Z,6.50
2018-11-25T05:40:38.466Z,7.20
2018-11-25T05:41:38.421Z,6.70
2018-11-25T05:42:38.385Z,6.90
2018-11-25T05:43:38.340Z,6.90
2018-11-25T05:44:38.298Z,7.40
2018-11-25T05:45:38.254Z,7.20
2018-11-25T05:46:38.211Z,7.90
2018-11-25T05:47:38.171Z,8.20
2018-11-25T05:48:38.137Z,7.90
2018-11-25T05:49:38.094Z,10.20
2018-11-25T05:50:38.051Z,10.30
2018-11-25T05:51:38.008Z,11.80
2018-11-25T05:52:37.967Z,12.30
2018-11-25T05:53:37.922Z,12.50
2018-11-25T05:54:37.880Z,13.30
2018-11-25T05:55:37.853Z,14.20
2018-11-25T05:56:37.806Z,15.10
2018-11-25T05:57:37.761Z,14.40
2018-11-25T05:58:37.710Z,15.50
2018-11-25T05:59:37.673Z,15.00
2018-11-25T06:00:37.634Z,15.30
2018-11-25T06:01:37.593Z,16.00
2018-11-25T06:02:37.551Z,15.00
2018-11-25T06:03:37.507Z,15.50
2018-11-25T06:04:37.465Z,16.20
2018-11-25T06:05:37.421Z,17.60
2018-11-25T06:06:37.376Z,16.70
2018-11-25T06:07:37.339Z,16.80
2018-11-25T06:08:37.298Z,17.40
2018-11-25T06:09:37.259Z,18.00
2018-11-25T06:10:37.219Z,17.70
2018-11-25T06:11:37.171Z,18.80
2018-11-25T06:12:37.130Z,18.10
2018-11-25T06:13:37.083Z,17.50
2018-11-25T06:14:37.052Z,17.50
2018-11-25T06:15:37.004Z,18.50
2018-11-25T06:16:36.960Z,19.20
2018-11-25T06:17:36.917Z,19.50
2018-11-25T06:18:36.879Z,20.20
2018-11-25T06:19:36.834Z,20.70
2018-11-25T06:20:36.793Z,20.70
2018-11-25T06:21:36.760Z,19.60
2018-11-25T06:22:36.707Z,19.00
2018-11-25T06:23:36.669Z,20.20
2018-11-25T06:24:36.621Z,20.80
2018-11-25T06:25:36.581Z,20.60
2018-11-25T06:26:36.538Z,19.30
2018-11-25T06:27:38.208Z,19.30
2018-11-25T06:28:36.458Z,19.10
2018-11-25T06:29:36.415Z,19.60
2018-11-25T06:30:36.369Z,18.00
2018-11-25T06:31:36.329Z,17.50
2018-11-25T06:32:36.291Z,17.40
2018-11-25T06:33:36.247Z,16.70
2018-11-25T06:34:36.204Z,17.40
2018-11-25T06:35:36.164Z,16.50
2018-11-25T06:36:36.117Z,17.00
2018-11-25T06:37:36.078Z,15.60
2018-11-25T06:38:36.037Z,14.90
2018-11-25T06:39:35.990Z,14.70
2018-11-25T06:40:35.958Z,16.00
2018-11-25T06:41:35.911Z,17.60
2018-11-25T06:42:35.870Z,18.40
2018-11-25T06:43:35.829Z,17.90
2018-11-25T06:44:35.780Z,18.40
2018-11-25T06:45:35.748Z,18.90
2018-11-25T06:46:35.701Z,19.50
2018-11-25T06:47:35.660Z,19.00
2018-11-25T06:48:35.615Z,19.60
2018-11-25T06:49:35.580Z,19.10
2018-11-25T06:50:35.535Z,20.70
2018-11-25T06:51:35.495Z,21.10
2018-11-25T06:52:35.452Z,20.70
2018-11-25T06:53:35.408Z,19.80
2018-11-25T06:54:35.366Z,19.50
2018-11-25T06:55:35.326Z,19.20
2018-11-25T06:56:35.277Z,19.00
2018-11-25T06:57:35.239Z,18.90
2018-11-25T06:58:35.196Z,18.20
2018-11-25T06:59:35.161Z,18.70
2018-11-25T07:00:35.116Z,18.70
2018-11-25T07:01:35.074Z,18.30
2018-11-25T07:02:35.028Z,17.80
2018-11-25T07:03:34.986Z,17.50
2018-11-25T07:04:34.953Z,17.10
2018-11-25T07:05:34.905Z,17.10
2018-11-25T07:06:34.862Z,16.90
2018-11-25T07:07:34.834Z,16.40
2018-11-25T07:08:34.777Z,18.20
2018-11-25T07:09:34.740Z,16.40
2018-11-25T07:10:34.725Z,17.10
2018-11-25T07:11:34.648Z,16.80
2018-11-25T07:12:34.613Z,17.90
2018-11-25T07:13:34.570Z,17.60
2018-11-25T07:14:34.529Z,17.50
2018-11-25T07:15:34.488Z,16.60
2018-11-25T07:16:34.440Z,16.90
2018-11-25T07:17:34.402Z,16.80
2018-11-25T07:18:34.360Z,17.10
2018-11-25T07:19:34.326Z,15.30
2018-11-25T07:20:34.273Z,15.60
2018-11-25T07:21:34.238Z,15.50
2018-11-25T07:22:34.196Z,15.40
2018-11-25T07:23:34.149Z,15.60
2018-11-25T07:24:34.113Z,14.80
2018-11-25T07:25:34.070Z,14.70
2018-11-25T07:26:34.029Z,14.80
2018-11-25T07:27:33.987Z,15.00
2018-11-25T07:28:33.939Z,15.10
2018-11-25T07:29:33.901Z,14.50
2018-11-25T07:30:33.857Z,14.70
2018-11-25T07:31:33.815Z,16.20
2018-11-25T07:32:33.779Z,15.20
2018-11-25T07:33:33.735Z,15.50
2018-11-25T07:34:33.693Z,15.40
2018-11-25T07:35:33.647Z,15.70
2018-11-25T07:36:33.617Z,15.90
2018-11-25T07:37:33.570Z,17.30
2018-11-25T07:38:33.527Z,16.60
2018-11-25T07:39:33.486Z,16.60
2018-11-25T07:40:33.441Z,16.20
2018-11-25T07:41:33.400Z,15.90
2018-11-25T07:42:33.358Z,15.10
2018-11-25T07:43:33.314Z,15.40
2018-11-25T07:44:33.286Z,15.50
2018-11-25T07:45:33.236Z,15.00
2018-11-25T07:46:33.194Z,15.50
2018-11-25T07:47:33.154Z,15.10
2018-11-25T07:48:33.108Z,15.00
2018-11-25T07:49:33.068Z,15.10
2018-11-25T07:50:33.029Z,15.10
2018-11-25T07:51:32.988Z,14.40
2018-11-25T07:52:32.942Z,14.80
2018-11-25T07:53:32.923Z,14.00
2018-11-25T07:54:32.859Z,13.70
2018-11-25T07:55:32.816Z,13.20
2018-11-25T07:56:32.829Z,12.90
2018-11-25T07:57:32.739Z,12.50
2018-11-25T07:58:32.695Z,12.10
2018-11-25T07:59:32.657Z,12.50
2018-11-25T08:00:32.610Z,12.50
2018-11-25T08:01:32.568Z,12.70
2018-11-25T08:02:32.528Z,12.00
2018-11-25T08:03:32.484Z,12.20
2018-11-25T08:04:32.452Z,12.40
2018-11-25T08:05:32.405Z,11.60
2018-11-25T08:06:32.361Z,12.50
2018-11-25T08:07:32.744Z,12.10
2018-11-25T08:08:32.291Z,12.00
2018-11-25T08:09:32.239Z,16.10
2018-11-25T08:10:32.200Z,17.70
2018-11-25T08:11:32.159Z,19.20
2018-11-25T08:12:32.111Z,20.90
2018-11-25T08:13:32.073Z,21.50
2018-11-25T08:14:32.029Z,21.50
2018-11-25T08:15:31.986Z,20.40
2018-11-25T08:16:31.959Z,22.10
2018-11-25T08:17:31.908Z,20.00
2018-11-25T08:18:31.870Z,19.40
2018-11-25T08:19:31.827Z,20.50
2018-11-25T08:20:31.779Z,21.30
2018-11-25T08:21:31.741Z,20.10
2018-11-25T08:22:31.699Z,19.70
2018-11-25T08:23:31.664Z,20.20
2018-11-25T08:24:31.618Z,20.60
2018-11-25T08:25:31.574Z,19.00
2018-11-25T08:26:31.533Z,18.30
2018-11-25T08:27:31.491Z,17.40
2018-11-25T08:28:31.459Z,16.30
2018-11-25T08:29:31.416Z,15.80
2018-11-25T08:30:31.370Z,15.80
2018-11-25T08:31:31.331Z,14.80
2018-11-25T08:32:31.287Z,15.60
2018-11-25T08:33:31.248Z,14.70
2018-11-25T08:34:31.201Z,15.40
2018-11-25T08:35:31.158Z,15.70
2018-11-25T08:36:31.122Z,16.30
2018-11-25T08:37:31.083Z,17.10
2018-11-25T08:38:31.035Z,19.90
2018-11-25T08:39:30.992Z,26.30
2018-11-25T08:40:30.956Z,29.40
2018-11-25T08:41:30.917Z,19.30
2018-11-25T08:42:30.883Z,17.00
2018-11-25T08:43:30.833Z,18.40
2018-11-25T08:44:30.794Z,17.30
2018-11-25T08:45:30.747Z,18.50
2018-11-25T08:46:30.704Z,18.00
2018-11-25T08:47:30.660Z,20.20
2018-11-25T08:48:30.625Z,17.60
2018-11-25T08:49:30.588Z,17.40
2018-11-25T08:50:30.542Z,17.80
2018-11-25T08:51:30.501Z,16.10
2018-11-25T08:52:30.453Z,15.70
2018-11-25T08:53:30.413Z,15.50
2018-11-25T08:54:30.374Z,16.20
2018-11-25T08:55:30.333Z,15.40
2018-11-25T08:56:30.289Z,14.50
2018-11-25T08:57:30.248Z,14.50
2018-11-25T08:58:30.205Z,13.70
2018-11-25T08:59:30.161Z,13.00
2018-11-25T09:00:30.129Z,13.60
2018-11-25T09:01:30.083Z,13.40
2018-11-25T09:02:30.041Z,13.60
2018-11-25T09:03:30.003Z,14.10
2018-11-25T09:04:29.962Z,15.30
2018-11-25T09:05:29.913Z,15.30
2018-11-25T09:06:29.872Z,16.40
2018-11-25T09:07:29.828Z,16.60
2018-11-25T09:08:29.794Z,16.90
2018-11-25T09:09:30.407Z,16.10
2018-11-25T09:10:29.717Z,15.70
2018-11-25T09:11:29.664Z,15.20
2018-11-25T09:12:29.626Z,15.10
2018-11-25T09:13:29.584Z,15.50
2018-11-25T09:14:29.541Z,16.10
2018-11-25T09:15:29.501Z,15.90
2018-11-25T09:16:29.455Z,16.90
2018-11-25T09:17:29.418Z,16.80
2018-11-25T09:18:29.372Z,16.30
2018-11-25T09:19:29.329Z,14.70
2018-11-25T09:20:29.296Z,15.40
2018-11-25T09:21:29.250Z,15.90
2018-11-25T09:22:29.209Z,16.30
2018-11-25T09:23:29.169Z,17.80
2018-11-25T09:24:29.124Z,15.90
2018-11-25T09:25:29.084Z,15.50
2018-11-25T09:26:29.042Z,16.20
2018-11-25T09:27:29.002Z,17.20
2018-11-25T09:28:28.957Z,17.30
2018-11-25T09:29:28.915Z,17.80
2018-11-25T09:30:28.878Z,19.10
2018-11-25T09:31:28.829Z,19.30
2018-11-25T09:32:28.794Z,20.10
2018-11-25T09:33:28.755Z,21.40
2018-11-25T09:34:28.708Z,22.20
2018-11-25T09:35:28.668Z,22.00
2018-11-25T09:36:28.626Z,22.30
2018-11-25T09:37:28.581Z,20.90
2018-11-25T09:38:28.539Z,20.90
2018-11-25T09:39:28.496Z,22.80
2018-11-25T09:40:28.459Z,21.80
2018-11-25T09:41:28.415Z,22.60
2018-11-25T09:42:28.372Z,22.20
2018-11-25T09:43:28.329Z,23.70
2018-11-25T09:44:28.294Z,23.20
2018-11-25T09:45:28.249Z,22.30
2018-11-25T09:46:28.207Z,22.10
2018-11-25T09:47:28.200Z,21.70
2018-11-25T09:48:28.121Z,22.40
2018-11-25T09:49:28.082Z,22.80
2018-11-25T09:50:28.042Z,22.40
2018-11-25T09:51:27.996Z,22.40
2018-11-25T09:52:27.959Z,22.40
2018-11-25T09:53:27.915Z,24.20
2018-11-25T09:54:27.876Z,22.40
2018-11-25T09:55:27.835Z,22.40
2018-11-25T09:56:27.785Z,21.80
2018-11-25T09:57:27.747Z,21.60
2018-11-25T09:58:27.710Z,20.30
2018-11-25T09:59:27.667Z,20.50
2018-11-25T10:00:27.623Z,19.00
2018-11-25T10:01:27.580Z,18.10
2018-11-25T10:02:27.542Z,20.40
2018-11-25T10:03:27.495Z,19.70
2018-11-25T10:04:27.501Z,19.20
2018-11-25T10:05:27.416Z,20.40
2018-11-25T10:20:02.946Z,16.40
2018-11-25T10:21:02.872Z,17.80
2018-11-25T10:22:02.824Z,20.70
2018-11-25T10:23:02.788Z,20.90
2018-11-25T10:24:02.740Z,21.50
2018-11-25T10:25:02.702Z,21.10
2018-11-25T10:26:02.652Z,20.50
2018-11-25T10:27:02.604Z,20.70
2018-11-25T10:28:02.562Z,19.30
2018-11-25T10:29:02.521Z,18.90
2018-11-25T10:30:02.480Z,18.40
2018-11-25T10:31:02.431Z,17.20
2018-11-25T10:32:02.394Z,18.20
2018-11-25T10:33:02.382Z,19.00
2018-11-25T10:34:02.304Z,18.60
2018-11-25T10:35:02.272Z,17.70
2018-11-25T10:36:04.663Z,18.00
2018-11-25T10:37:02.184Z,18.00
2018-11-25T10:38:02.146Z,18.10
2018-11-25T10:39:02.092Z,18.70
2018-11-25T10:40:02.060Z,17.60
2018-11-25T10:41:02.013Z,18.20
2018-11-25T10:42:01.965Z,18.20
2018-11-25T10:43:01.934Z,18.50
2018-11-25T10:44:01.886Z,17.50
2018-11-25T10:45:01.846Z,17.70
2018-11-25T10:46:01.797Z,17.10
2018-11-25T10:47:01.765Z,18.20
2018-11-25T10:48:01.730Z,18.40
2018-11-25T10:49:01.678Z,19.00
2018-11-25T10:50:01.639Z,18.40
2018-11-25T10:51:01.589Z,19.10
2018-11-25T10:52:01.551Z,20.10
2018-11-25T10:53:01.509Z,19.80
2018-11-25T10:54:01.464Z,19.70
2018-11-25T10:55:01.429Z,19.50
2018-11-25T10:56:01.385Z,19.30
2018-11-25T10:57:01.343Z,19.60
2018-11-25T10:58:01.305Z,20.30
2018-11-25T10:59:01.255Z,20.10
2018-11-25T11:00:01.248Z,21.40
2018-11-25T11:01:01.179Z,20.80
2018-11-25T11:02:01.138Z,20.70
2018-11-25T11:03:01.090Z,19.80
2018-11-25T11:04:01.051Z,22.00
2018-11-25T11:05:01.009Z,22.40
2018-11-25T11:06:00.964Z,20.60
2018-11-25T11:07:00.931Z,19.70
2018-11-25T11:08:00.885Z,19.60
2018-11-25T11:09:00.844Z,17.20
2018-11-25T11:10:00.805Z,16.70
2018-11-25T11:11:00.757Z,16.70
2018-11-25T11:12:00.718Z,17.60
2018-11-25T11:13:00.680Z,18.30
2018-11-25T11:14:00.636Z,19.40
2018-11-25T11:15:00.598Z,17.90
2018-11-25T11:16:00.553Z,18.40
2018-11-25T11:17:00.522Z,18.30
2018-11-25T11:18:00.466Z,18.80
2018-11-25T11:19:00.431Z,19.00
2018-11-25T11:20:00.387Z,18.40
2018-11-25T11:21:00.348Z,18.70
2018-11-25T11:22:00.306Z,18.10
2018-11-25T11:23:00.263Z,17.90
2018-11-25T11:24:00.219Z,18.40
2018-11-25T11:25:00.177Z,19.70
2018-11-25T11:26:06.693Z,18.30
2018-11-25T11:27:00.100Z,18.60
2018-11-25T11:28:00.063Z,18.00
2018-11-25T11:29:00.015Z,17.80
2018-11-25T11:29:59.974Z,17.60
2018-11-25T11:30:59.926Z,18.30
2018-11-25T11:31:59.886Z,16.90
2018-11-25T11:32:59.889Z,17.30
2018-11-25T11:33:59.808Z,17.80
2018-11-25T11:34:59.760Z,17.40
2018-11-25T11:35:59.721Z,18.20
2018-11-25T11:36:59.680Z,17.10
2018-11-25T11:37:59.635Z,18.10
2018-11-25T11:38:59.604Z,18.20
2018-11-25T11:39:59.557Z,17.80
2018-11-25T11:40:59.518Z,19.10
2018-11-25T11:41:59.476Z,20.30
2018-11-25T11:42:59.429Z,21.00
2018-11-25T11:43:59.388Z,21.30
2018-11-25T11:44:59.348Z,20.60
2018-11-25T11:45:59.304Z,19.90
2018-11-25T11:46:59.268Z,21.50
2018-11-25T11:47:59.226Z,20.60
2018-11-25T11:48:59.178Z,20.40
2018-11-25T11:49:59.139Z,20.10
2018-11-25T11:50:59.103Z,19.70
2018-11-25T11:51:59.060Z,20.60
2018-11-25T11:52:59.018Z,19.90
2018-11-25T11:53:58.977Z,20.10
2018-11-25T11:54:58.929Z,21.20
2018-11-25T11:55:58.890Z,19.70
2018-11-25T11:56:58.850Z,19.60
2018-11-25T11:57:58.806Z,20.10
2018-11-25T11:58:58.769Z,21.30
2018-11-25T11:59:58.726Z,20.90
2018-11-25T12:00:58.688Z,19.40
2018-11-25T12:01:58.645Z,21.50
2018-11-25T12:02:58.597Z,21.00
2018-11-25T12:03:58.562Z,20.40
2018-11-25T12:04:58.518Z,20.40
2018-11-25T12:05:58.478Z,20.20
2018-11-25T12:06:58.431Z,20.50
2018-11-25T12:07:58.395Z,21.50
2018-11-25T12:08:58.349Z,20.80
2018-11-25T12:09:58.308Z,21.90
2018-11-25T12:10:58.272Z,21.50
2018-11-25T12:11:58.227Z,22.70
2018-11-25T12:12:58.188Z,22.70
2018-11-25T12:13:58.146Z,22.60
2018-11-25T12:14:58.097Z,22.90
2018-11-25T12:15:58.059Z,23.00
2018-11-25T12:16:58.018Z,22.70
2018-11-25T12:17:57.973Z,21.60
2018-11-25T12:18:57.937Z,23.20
2018-11-25T12:19:57.894Z,22.90
2018-11-25T12:20:57.853Z,23.20
2018-11-25T12:21:58.260Z,22.80
2018-11-25T12:22:57.773Z,23.30
2018-11-25T12:23:57.728Z,24.10
2018-11-25T12:24:57.687Z,24.50
2018-11-25T12:25:57.645Z,24.00
2018-11-25T12:26:57.600Z,24.50
2018-11-25T12:27:57.560Z,24.90
2018-11-25T12:28:57.519Z,24.90
2018-11-25T12:29:57.474Z,24.80
2018-11-25T12:30:57.447Z,25.30
2018-11-25T12:31:57.397Z,26.30
2018-11-25T12:32:57.353Z,25.80
2018-11-25T12:33:57.313Z,26.30
2018-11-25T12:34:57.266Z,27.20
2018-11-25T12:35:57.226Z,28.10
2018-11-25T12:36:57.188Z,25.90
2018-11-25T12:37:57.147Z,26.60
2018-11-25T12:38:57.098Z,28.50
2018-11-25T12:39:57.060Z,31.60
2018-11-25T12:40:57.023Z,28.50
2018-11-25T12:41:56.973Z,28.30
2018-11-25T12:42:56.938Z,25.40
2018-11-25T12:43:56.896Z,26.70
2018-11-25T12:44:56.853Z,26.40
2018-11-25T12:45:56.812Z,25.10
2018-11-25T12:46:56.767Z,28.20
2018-11-25T12:47:56.726Z,28.70
2018-11-25T12:48:56.685Z,29.60
2018-11-25T12:49:56.642Z,33.00
2018-11-25T12:50:56.605Z,29.60
2018-11-25T12:51:56.562Z,29.60
2018-11-25T12:52:56.518Z,28.00
2018-11-25T12:53:56.473Z,26.40
2018-11-25T12:54:56.438Z,25.50
2018-11-25T12:55:56.395Z,27.50
2018-11-25T12:56:56.353Z,27.40
2018-11-25T12:57:56.313Z,28.60
2018-11-25T12:58:56.266Z,27.90
2018-11-25T12:59:56.229Z,29.20
2018-11-25T13:00:56.184Z,29.60
2018-11-25T13:01:56.141Z,30.20
2018-11-25T13:02:56.104Z,30.50
2018-11-25T13:03:56.062Z,29.80
2018-11-25T13:04:56.019Z,29.50
2018-11-25T13:05:55.979Z,32.70
2018-11-25T13:06:55.932Z,31.00
2018-11-25T13:07:55.892Z,32.50
2018-11-25T13:08:55.853Z,31.50
2018-11-25T13:09:55.811Z,31.70
2018-11-25T13:10:55.766Z,30.60
2018-11-25T13:11:55.725Z,33.10
2018-11-25T13:12:55.682Z,34.30
2018-11-25T13:13:55.638Z,31.60
2018-11-25T13:14:55.609Z,31.80
2018-11-25T13:15:55.559Z,31.40
2018-11-25T13:16:55.516Z,33.30
2018-11-25T13:17:55.471Z,30.80
2018-11-25T13:18:55.436Z,34.10
2018-11-25T13:19:55.393Z,35.10
2018-11-25T13:20:55.350Z,32.90
2018-11-25T13:21:55.311Z,32.30
2018-11-25T13:22:55.261Z,32.40
2018-11-25T13:23:55.223Z,36.50
2018-11-25T13:24:55.183Z,37.10
2018-11-25T13:25:55.145Z,40.50
2018-11-25T13:26:55.095Z,40.80
2018-11-25T13:27:55.055Z,42.00
2018-11-25T13:28:55.014Z,37.90
2018-11-25T13:29:54.969Z,37.30
2018-11-25T13:30:54.934Z,38.30